sensor_id;sensor_type;location;lat;lon;timestamp;temperature;humidity
4374;DHT22;2201;51.100;6.814;2022-11-18T00:01:46;10.60;98.20
4374;DHT22;2201;51.100;6.814;2022-11-18T00:04:12;10.60;98.20
4374;DHT22;2201;51.100;6.814;2022-11-18T00:06:39;10.60;98.20
4374;DHT22;2201;51.100;6.814;2022-11-18T00:09:07;10.60;98.20
4374;DHT22;2201;51.100;6.814;2022-11-18T00:11:34;10.60;98.20
4374;DHT22;2201;51.100;6.814;2022-11-18T00:14:20;10.60;98.20
4374;DHT22;2201;51.100;6.814;2022-11-18T00:16:50;10.60;98.20
4374;DHT22;2201;51.100;6.814;2022-11-18T00:19:18;10.60;98.20
4374;DHT22;2201;51.100;6.814;2022-11-18T00:21:53;10.60;98.20
4374;DHT22;2201;51.100;6.814;2022-11-18T00:24:21;10.60;98.20
4374;DHT22;2201;51.100;6.814;2022-11-18T00:26:49;10.60;98.20
4374;DHT22;2201;51.100;6.814;2022-11-18T00:29:16;10.60;98.20
4374;DHT22;2201;51.100;6.814;2022-11-18T00:31:44;10.60;98.20
4374;DHT22;2201;51.100;6.814;2022-11-18T00:34:12;10.60;98.20
4374;DHT22;2201;51.100;6.814;2022-11-18T00:36:40;10.60;98.20
4374;DHT22;2201;51.100;6.814;2022-11-18T00:39:09;10.60;98.20
4374;DHT22;2201;51.100;6.814;2022-11-18T00:41:36;10.60;98.20
4374;DHT22;2201;51.100;6.814;2022-11-18T00:44:20;10.60;98.20
4374;DHT22;2201;51.100;6.814;2022-11-18T00:46:49;10.60;98.20
4374;DHT22;2201;51.100;6.814;2022-11-18T00:49:15;10.60;98.20
4374;DHT22;2201;51.100;6.814;2022-11-18T00:51:42;10.60;98.20
4374;DHT22;2201;51.100;6.814;2022-11-18T00:54:09;10.60;98.20
4374;DHT22;2201;51.100;6.814;2022-11-18T00:56:37;10.60;98.20
4374;DHT22;2201;51.100;6.814;2022-11-18T00:59:03;10.60;98.20
4374;DHT22;2201;51.100;6.814;2022-11-18T01:01:30;10.60;98.20
4374;DHT22;2201;51.100;6.814;2022-11-18T01:03:59;10.60;98.20
4374;DHT22;2201;51.100;6.814;2022-11-18T01:06:26;10.60;98.20
4374;DHT22;2201;51.100;6.814;2022-11-18T01:08:52;10.60;98.20
4374;DHT22;2201;51.100;6.814;2022-11-18T01:11:19;10.60;98.20
4374;DHT22;2201;51.100;6.814;2022-11-18T01:14:04;10.50;98.20
4374;DHT22;2201;51.100;6.814;2022-11-18T01:16:31;10.50;98.20
4374;DHT22;2201;51.100;6.814;2022-11-18T01:18:59;10.50;98.20
4374;DHT22;2201;51.100;6.814;2022-11-18T01:21:27;10.50;98.20
4374;DHT22;2201;51.100;6.814;2022-11-18T01:23:54;10.50;98.20
4374;DHT22;2201;51.100;6.814;2022-11-18T01:26:21;10.50;98.20
4374;DHT22;2201;51.100;6.814;2022-11-18T01:28:47;10.40;98.20
4374;DHT22;2201;51.100;6.814;2022-11-18T01:31:16;10.40;98.20
4374;DHT22;2201;51.100;6.814;2022-11-18T01:33:44;10.40;98.20
4374;DHT22;2201;51.100;6.814;2022-11-18T01:36:17;10.40;98.20
4374;DHT22;2201;51.100;6.814;2022-11-18T01:38:44;10.40;98.20
4374;DHT22;2201;51.100;6.814;2022-11-18T01:41:12;10.40;98.20
4374;DHT22;2201;51.100;6.814;2022-11-18T01:43:51;10.40;98.20
4374;DHT22;2201;51.100;6.814;2022-11-18T01:46:19;10.40;98.20
4374;DHT22;2201;51.100;6.814;2022-11-18T01:48:48;10.30;98.20
4374;DHT22;2201;51.100;6.814;2022-11-18T01:51:20;10.30;98.20
4374;DHT22;2201;51.100;6.814;2022-11-18T01:53:56;10.30;98.20
4374;DHT22;2201;51.100;6.814;2022-11-18T01:56:29;10.30;98.20
4374;DHT22;2201;51.100;6.814;2022-11-18T01:59:00;10.30;98.20
4374;DHT22;2201;51.100;6.814;2022-11-18T02:01:28;10.30;98.20
4374;DHT22;2201;51.100;6.814;2022-11-18T02:03:56;10.30;98.20
4374;DHT22;2201;51.100;6.814;2022-11-18T02:06:24;10.30;98.20
4374;DHT22;2201;51.100;6.814;2022-11-18T02:08:51;10.20;98.20
4374;DHT22;2201;51.100;6.814;2022-11-18T02:11:18;10.20;98.20
4374;DHT22;2201;51.100;6.814;2022-11-18T02:14:01;10.30;98.20
4374;DHT22;2201;51.100;6.814;2022-11-18T02:16:37;10.30;98.20
4374;DHT22;2201;51.100;6.814;2022-11-18T02:19:19;10.30;98.20
4374;DHT22;2201;51.100;6.814;2022-11-18T02:22:00;10.30;98.20
4374;DHT22;2201;51.100;6.814;2022-11-18T02:24:40;10.30;98.20
4374;DHT22;2201;51.100;6.814;2022-11-18T02:27:37;10.30;98.20
4374;DHT22;2201;51.100;6.814;2022-11-18T02:30:10;10.30;98.20
4374;DHT22;2201;51.100;6.814;2022-11-18T02:32:42;10.30;98.20
4374;DHT22;2201;51.100;6.814;2022-11-18T02:35:14;10.30;98.20
4374;DHT22;2201;51.100;6.814;2022-11-18T02:37:46;10.30;98.20
4374;DHT22;2201;51.100;6.814;2022-11-18T02:40:19;10.30;98.20
4374;DHT22;2201;51.100;6.814;2022-11-18T02:42:50;10.30;98.20
4374;DHT22;2201;51.100;6.814;2022-11-18T02:45:20;10.30;98.20
4374;DHT22;2201;51.100;6.814;2022-11-18T02:47:49;10.30;98.20
4374;DHT22;2201;51.100;6.814;2022-11-18T02:50:20;10.30;98.20
4374;DHT22;2201;51.100;6.814;2022-11-18T02:52:52;10.20;98.20
4374;DHT22;2201;51.100;6.814;2022-11-18T02:55:21;10.20;98.20
4374;DHT22;2201;51.100;6.814;2022-11-18T02:57:49;10.20;98.20
4374;DHT22;2201;51.100;6.814;2022-11-18T03:00:18;10.20;98.20
4374;DHT22;2201;51.100;6.814;2022-11-18T03:02:47;10.20;98.20
4374;DHT22;2201;51.100;6.814;2022-11-18T03:05:18;10.20;98.20
4374;DHT22;2201;51.100;6.814;2022-11-18T03:07:51;10.20;98.20
4374;DHT22;2201;51.100;6.814;2022-11-18T03:10:22;10.20;98.20
4374;DHT22;2201;51.100;6.814;2022-11-18T03:13:01;10.20;98.20
4374;DHT22;2201;51.100;6.814;2022-11-18T03:15:35;10.20;98.20
4374;DHT22;2201;51.100;6.814;2022-11-18T03:18:10;10.20;98.20
4374;DHT22;2201;51.100;6.814;2022-11-18T03:20:45;10.20;98.20
4374;DHT22;2201;51.100;6.814;2022-11-18T03:23:20;10.20;98.20
4374;DHT22;2201;51.100;6.814;2022-11-18T03:25:50;10.20;98.20
4374;DHT22;2201;51.100;6.814;2022-11-18T03:28:24;10.20;98.20
4374;DHT22;2201;51.100;6.814;2022-11-18T03:30:59;10.20;98.20
4374;DHT22;2201;51.100;6.814;2022-11-18T03:33:32;10.20;98.20
4374;DHT22;2201;51.100;6.814;2022-11-18T03:36:02;10.10;98.20
4374;DHT22;2201;51.100;6.814;2022-11-18T03:38:33;10.10;98.20
4374;DHT22;2201;51.100;6.814;2022-11-18T03:41:05;10.10;98.20
4374;DHT22;2201;51.100;6.814;2022-11-18T03:43:36;10.10;98.20
4374;DHT22;2201;51.100;6.814;2022-11-18T03:46:09;10.10;98.20
4374;DHT22;2201;51.100;6.814;2022-11-18T03:48:42;10.10;98.20
4374;DHT22;2201;51.100;6.814;2022-11-18T03:51:14;10.10;98.20
4374;DHT22;2201;51.100;6.814;2022-11-18T03:53:45;10.10;98.20
4374;DHT22;2201;51.100;6.814;2022-11-18T03:56:17;10.10;98.20
4374;DHT22;2201;51.100;6.814;2022-11-18T03:58:49;10.20;98.20
4374;DHT22;2201;51.100;6.814;2022-11-18T04:01:24;10.20;98.20
4374;DHT22;2201;51.100;6.814;2022-11-18T04:03:55;10.20;98.20
4374;DHT22;2201;51.100;6.814;2022-11-18T04:06:27;10.20;98.20
4374;DHT22;2201;51.100;6.814;2022-11-18T04:08:59;10.20;98.20
4374;DHT22;2201;51.100;6.814;2022-11-18T04:11:32;10.20;98.20
4374;DHT22;2201;51.100;6.814;2022-11-18T04:14:30;10.20;98.20
4374;DHT22;2201;51.100;6.814;2022-11-18T04:17:03;10.20;98.20
4374;DHT22;2201;51.100;6.814;2022-11-18T04:19:31;10.20;98.20
4374;DHT22;2201;51.100;6.814;2022-11-18T04:21:57;10.20;98.20
4374;DHT22;2201;51.100;6.814;2022-11-18T04:24:24;10.20;98.20
4374;DHT22;2201;51.100;6.814;2022-11-18T04:26:51;10.30;98.20
4374;DHT22;2201;51.100;6.814;2022-11-18T04:29:21;10.30;98.20
4374;DHT22;2201;51.100;6.814;2022-11-18T04:31:48;10.30;98.20
4374;DHT22;2201;51.100;6.814;2022-11-18T04:34:16;10.30;98.20
4374;DHT22;2201;51.100;6.814;2022-11-18T04:36:43;10.30;98.20
4374;DHT22;2201;51.100;6.814;2022-11-18T04:39:09;10.30;98.20
4374;DHT22;2201;51.100;6.814;2022-11-18T04:41:36;10.30;98.20
4374;DHT22;2201;51.100;6.814;2022-11-18T04:44:23;10.30;98.20
4374;DHT22;2201;51.100;6.814;2022-11-18T04:46:50;10.30;98.20
4374;DHT22;2201;51.100;6.814;2022-11-18T04:49:18;10.30;98.20
4374;DHT22;2201;51.100;6.814;2022-11-18T04:51:45;10.30;98.20
4374;DHT22;2201;51.100;6.814;2022-11-18T04:54:13;10.30;98.20
4374;DHT22;2201;51.100;6.814;2022-11-18T04:56:41;10.30;98.20
4374;DHT22;2201;51.100;6.814;2022-11-18T04:59:08;10.30;98.20
4374;DHT22;2201;51.100;6.814;2022-11-18T05:01:35;10.30;98.20
4374;DHT22;2201;51.100;6.814;2022-11-18T05:04:04;10.30;98.20
4374;DHT22;2201;51.100;6.814;2022-11-18T05:06:33;10.30;98.20
4374;DHT22;2201;51.100;6.814;2022-11-18T05:09:00;10.20;98.20
4374;DHT22;2201;51.100;6.814;2022-11-18T05:11:27;10.20;98.20
4374;DHT22;2201;51.100;6.814;2022-11-18T05:14:11;10.20;98.20
4374;DHT22;2201;51.100;6.814;2022-11-18T05:16:38;10.20;98.20
4374;DHT22;2201;51.100;6.814;2022-11-18T05:19:06;10.20;98.20
4374;DHT22;2201;51.100;6.814;2022-11-18T05:21:34;10.20;98.20
4374;DHT22;2201;51.100;6.814;2022-11-18T05:24:01;10.10;98.20
4374;DHT22;2201;51.100;6.814;2022-11-18T05:26:28;10.20;98.20
4374;DHT22;2201;51.100;6.814;2022-11-18T05:28:55;10.20;98.20
4374;DHT22;2201;51.100;6.814;2022-11-18T05:31:22;10.20;98.20
4374;DHT22;2201;51.100;6.814;2022-11-18T05:33:49;10.10;98.20
4374;DHT22;2201;51.100;6.814;2022-11-18T05:36:18;10.10;98.20
4374;DHT22;2201;51.100;6.814;2022-11-18T05:38:46;10.10;98.20
4374;DHT22;2201;51.100;6.814;2022-11-18T05:41:13;10.00;98.20
4374;DHT22;2201;51.100;6.814;2022-11-18T05:44:00;10.00;98.20
4374;DHT22;2201;51.100;6.814;2022-11-18T05:46:27;10.00;98.20
4374;DHT22;2201;51.100;6.814;2022-11-18T05:48:54;10.00;98.20
4374;DHT22;2201;51.100;6.814;2022-11-18T05:51:22;9.90;98.20
4374;DHT22;2201;51.100;6.814;2022-11-18T05:53:51;9.90;98.20
4374;DHT22;2201;51.100;6.814;2022-11-18T05:56:21;9.90;98.20
4374;DHT22;2201;51.100;6.814;2022-11-18T05:58:49;9.90;98.20
4374;DHT22;2201;51.100;6.814;2022-11-18T06:01:19;9.90;98.20
4374;DHT22;2201;51.100;6.814;2022-11-18T06:03:47;9.90;98.20
4374;DHT22;2201;51.100;6.814;2022-11-18T06:06:16;9.90;98.20
4374;DHT22;2201;51.100;6.814;2022-11-18T06:08:48;9.90;98.20
4374;DHT22;2201;51.100;6.814;2022-11-18T06:11:19;9.90;98.20
4374;DHT22;2201;51.100;6.814;2022-11-18T06:13:49;9.90;98.20
4374;DHT22;2201;51.100;6.814;2022-11-18T06:16:21;9.90;98.20
4374;DHT22;2201;51.100;6.814;2022-11-18T06:18:49;9.90;98.20
4374;DHT22;2201;51.100;6.814;2022-11-18T06:21:15;9.90;98.20
4374;DHT22;2201;51.100;6.814;2022-11-18T06:23:42;9.90;98.20
4374;DHT22;2201;51.100;6.814;2022-11-18T06:26:11;9.90;98.20
4374;DHT22;2201;51.100;6.814;2022-11-18T06:28:41;9.90;98.20
4374;DHT22;2201;51.100;6.814;2022-11-18T06:31:08;9.90;98.20
4374;DHT22;2201;51.100;6.814;2022-11-18T06:33:35;9.90;98.20
4374;DHT22;2201;51.100;6.814;2022-11-18T06:36:01;9.90;98.20
4374;DHT22;2201;51.100;6.814;2022-11-18T06:38:28;9.90;98.20
4374;DHT22;2201;51.100;6.814;2022-11-18T06:40:58;9.80;98.20
4374;DHT22;2201;51.100;6.814;2022-11-18T06:43:25;9.80;98.20
4374;DHT22;2201;51.100;6.814;2022-11-18T06:46:08;9.80;98.20
4374;DHT22;2201;51.100;6.814;2022-11-18T06:48:53;9.80;98.20
4374;DHT22;2201;51.100;6.814;2022-11-18T06:51:20;9.80;98.20
4374;DHT22;2201;51.100;6.814;2022-11-18T06:53:46;9.80;98.20
4374;DHT22;2201;51.100;6.814;2022-11-18T06:56:15;9.70;98.20
4374;DHT22;2201;51.100;6.814;2022-11-18T06:58:42;9.70;98.20
4374;DHT22;2201;51.100;6.814;2022-11-18T07:01:11;9.70;98.20
4374;DHT22;2201;51.100;6.814;2022-11-18T07:03:38;9.70;98.20
4374;DHT22;2201;51.100;6.814;2022-11-18T07:06:07;9.70;98.20
4374;DHT22;2201;51.100;6.814;2022-11-18T07:08:35;9.70;98.20
4374;DHT22;2201;51.100;6.814;2022-11-18T07:11:03;9.70;98.20
4374;DHT22;2201;51.100;6.814;2022-11-18T07:13:30;9.70;98.20
4374;DHT22;2201;51.100;6.814;2022-11-18T07:16:02;9.70;98.20
4374;DHT22;2201;51.100;6.814;2022-11-18T07:18:31;9.70;98.20
4374;DHT22;2201;51.100;6.814;2022-11-18T07:21:00;9.70;98.20
4374;DHT22;2201;51.100;6.814;2022-11-18T07:23:28;9.70;98.20
4374;DHT22;2201;51.100;6.814;2022-11-18T07:25:55;9.70;98.20
4374;DHT22;2201;51.100;6.814;2022-11-18T07:28:24;9.80;98.20
4374;DHT22;2201;51.100;6.814;2022-11-18T07:30:51;9.80;98.20
4374;DHT22;2201;51.100;6.814;2022-11-18T07:33:18;9.80;98.20
4374;DHT22;2201;51.100;6.814;2022-11-18T07:35:46;9.80;98.20
4374;DHT22;2201;51.100;6.814;2022-11-18T07:38:13;9.80;98.20
4374;DHT22;2201;51.100;6.814;2022-11-18T07:40:40;9.90;98.20
4374;DHT22;2201;51.100;6.814;2022-11-18T07:43:06;9.90;98.20
4374;DHT22;2201;51.100;6.814;2022-11-18T07:45:33;9.90;98.20
4374;DHT22;2201;51.100;6.814;2022-11-18T07:48:00;10.00;98.20
4374;DHT22;2201;51.100;6.814;2022-11-18T07:50:27;10.00;98.20
4374;DHT22;2201;51.100;6.814;2022-11-18T07:52:56;10.00;98.20
4374;DHT22;2201;51.100;6.814;2022-11-18T07:55:23;10.00;98.20
4374;DHT22;2201;51.100;6.814;2022-11-18T07:57:50;10.00;98.20
4374;DHT22;2201;51.100;6.814;2022-11-18T08:00:17;10.00;98.20
4374;DHT22;2201;51.100;6.814;2022-11-18T08:02:48;10.00;98.20
4374;DHT22;2201;51.100;6.814;2022-11-18T08:05:15;10.00;98.20
4374;DHT22;2201;51.100;6.814;2022-11-18T08:07:42;10.00;98.20
4374;DHT22;2201;51.100;6.814;2022-11-18T08:10:10;10.00;98.20
4374;DHT22;2201;51.100;6.814;2022-11-18T08:12:37;10.10;98.20
4374;DHT22;2201;51.100;6.814;2022-11-18T08:15:04;10.10;98.20
4374;DHT22;2201;51.100;6.814;2022-11-18T08:17:31;10.00;98.20
4374;DHT22;2201;51.100;6.814;2022-11-18T08:19:59;10.10;98.20
4374;DHT22;2201;51.100;6.814;2022-11-18T08:22:25;10.10;98.20
4374;DHT22;2201;51.100;6.814;2022-11-18T08:24:52;10.20;98.20
4374;DHT22;2201;51.100;6.814;2022-11-18T08:27:21;10.20;98.20
4374;DHT22;2201;51.100;6.814;2022-11-18T08:29:48;10.30;98.20
4374;DHT22;2201;51.100;6.814;2022-11-18T08:32:14;10.30;98.20
4374;DHT22;2201;51.100;6.814;2022-11-18T08:34:41;10.40;98.20
4374;DHT22;2201;51.100;6.814;2022-11-18T08:37:08;10.50;98.20
4374;DHT22;2201;51.100;6.814;2022-11-18T08:39:35;10.50;98.20
4374;DHT22;2201;51.100;6.814;2022-11-18T08:42:02;10.60;98.20
4374;DHT22;2201;51.100;6.814;2022-11-18T08:44:30;10.60;98.20
4374;DHT22;2201;51.100;6.814;2022-11-18T08:46:59;10.70;98.20
4374;DHT22;2201;51.100;6.814;2022-11-18T08:49:26;10.80;98.20
4374;DHT22;2201;51.100;6.814;2022-11-18T08:51:53;10.90;98.20
4374;DHT22;2201;51.100;6.814;2022-11-18T08:54:20;11.10;98.20
4374;DHT22;2201;51.100;6.814;2022-11-18T08:56:47;11.20;98.20
4374;DHT22;2201;51.100;6.814;2022-11-18T08:59:15;11.30;98.20
4374;DHT22;2201;51.100;6.814;2022-11-18T09:01:43;11.40;98.20
4374;DHT22;2201;51.100;6.814;2022-11-18T09:04:10;11.60;98.20
4374;DHT22;2201;51.100;6.814;2022-11-18T09:06:37;11.70;98.20
4374;DHT22;2201;51.100;6.814;2022-11-18T09:09:05;11.70;98.20
4374;DHT22;2201;51.100;6.814;2022-11-18T09:11:32;11.80;98.20
4374;DHT22;2201;51.100;6.814;2022-11-18T09:14:00;11.80;98.20
4374;DHT22;2201;51.100;6.814;2022-11-18T09:16:29;11.80;98.20
4374;DHT22;2201;51.100;6.814;2022-11-18T09:18:58;11.80;98.20
4374;DHT22;2201;51.100;6.814;2022-11-18T09:21:25;11.70;98.20
4374;DHT22;2201;51.100;6.814;2022-11-18T09:23:52;11.70;98.20
4374;DHT22;2201;51.100;6.814;2022-11-18T09:26:21;11.70;98.20
4374;DHT22;2201;51.100;6.814;2022-11-18T09:28:48;11.70;98.20
4374;DHT22;2201;51.100;6.814;2022-11-18T09:31:16;11.80;98.20
4374;DHT22;2201;51.100;6.814;2022-11-18T09:33:44;11.80;98.20
4374;DHT22;2201;51.100;6.814;2022-11-18T09:36:21;11.90;98.20
4374;DHT22;2201;51.100;6.814;2022-11-18T09:38:50;12.00;98.20
4374;DHT22;2201;51.100;6.814;2022-11-18T09:41:29;12.00;98.20
4374;DHT22;2201;51.100;6.814;2022-11-18T09:44:07;11.90;98.20
4374;DHT22;2201;51.100;6.814;2022-11-18T09:46:45;11.90;98.20
4374;DHT22;2201;51.100;6.814;2022-11-18T09:49:17;11.90;98.20
4374;DHT22;2201;51.100;6.814;2022-11-18T09:51:49;11.80;98.20
4374;DHT22;2201;51.100;6.814;2022-11-18T09:54:19;11.80;98.20
4374;DHT22;2201;51.100;6.814;2022-11-18T09:56:47;11.80;98.20
4374;DHT22;2201;51.100;6.814;2022-11-18T09:59:16;11.80;98.20
4374;DHT22;2201;51.100;6.814;2022-11-18T10:01:44;11.80;98.20
4374;DHT22;2201;51.100;6.814;2022-11-18T10:04:14;11.90;98.20
4374;DHT22;2201;51.100;6.814;2022-11-18T10:06:41;12.00;98.20
4374;DHT22;2201;51.100;6.814;2022-11-18T10:09:21;12.20;98.20
4374;DHT22;2201;51.100;6.814;2022-11-18T10:12:01;12.30;98.20
4374;DHT22;2201;51.100;6.814;2022-11-18T10:15:01;12.50;98.20
4374;DHT22;2201;51.100;6.814;2022-11-18T10:17:38;12.70;98.20
4374;DHT22;2201;51.100;6.814;2022-11-18T10:20:20;12.90;98.20
4374;DHT22;2201;51.100;6.814;2022-11-18T10:22:53;13.10;98.20
4374;DHT22;2201;51.100;6.814;2022-11-18T10:25:24;13.30;98.20
4374;DHT22;2201;51.100;6.814;2022-11-18T10:27:51;13.40;98.20
4374;DHT22;2201;51.100;6.814;2022-11-18T10:30:21;13.50;98.20
4374;DHT22;2201;51.100;6.814;2022-11-18T10:32:56;13.50;98.20
4374;DHT22;2201;51.100;6.814;2022-11-18T10:35:26;13.40;98.20
4374;DHT22;2201;51.100;6.814;2022-11-18T10:38:03;13.40;98.20
4374;DHT22;2201;51.100;6.814;2022-11-18T10:40:33;13.30;98.20
4374;DHT22;2201;51.100;6.814;2022-11-18T10:43:00;13.20;98.20
4374;DHT22;2201;51.100;6.814;2022-11-18T10:45:29;13.20;98.20
4374;DHT22;2201;51.100;6.814;2022-11-18T10:48:05;13.20;98.20
4374;DHT22;2201;51.100;6.814;2022-11-18T10:50:34;13.30;98.20
4374;DHT22;2201;51.100;6.814;2022-11-18T10:53:02;13.30;98.20
4374;DHT22;2201;51.100;6.814;2022-11-18T10:55:29;13.50;98.20
4374;DHT22;2201;51.100;6.814;2022-11-18T10:58:00;13.60;98.20
4374;DHT22;2201;51.100;6.814;2022-11-18T11:00:43;13.70;98.20
4374;DHT22;2201;51.100;6.814;2022-11-18T11:03:23;13.70;98.20
4374;DHT22;2201;51.100;6.814;2022-11-18T11:06:11;13.70;98.20
4374;DHT22;2201;51.100;6.814;2022-11-18T11:08:46;13.70;98.20
4374;DHT22;2201;51.100;6.814;2022-11-18T11:11:21;13.60;98.20
4374;DHT22;2201;51.100;6.814;2022-11-18T11:13:54;13.50;98.20
4374;DHT22;2201;51.100;6.814;2022-11-18T11:16:22;13.40;98.20
4374;DHT22;2201;51.100;6.814;2022-11-18T11:18:54;13.30;98.20
4374;DHT22;2201;51.100;6.814;2022-11-18T11:21:25;13.30;98.20
4374;DHT22;2201;51.100;6.814;2022-11-18T11:23:53;13.10;98.20
4374;DHT22;2201;51.100;6.814;2022-11-18T11:26:27;13.10;98.20
4374;DHT22;2201;51.100;6.814;2022-11-18T11:29:01;13.00;98.20
4374;DHT22;2201;51.100;6.814;2022-11-18T11:31:35;13.00;98.20
4374;DHT22;2201;51.100;6.814;2022-11-18T11:34:12;13.00;98.20
4374;DHT22;2201;51.100;6.814;2022-11-18T11:36:46;12.90;98.20
4374;DHT22;2201;51.100;6.814;2022-11-18T11:39:37;12.90;98.20
4374;DHT22;2201;51.100;6.814;2022-11-18T11:42:14;12.80;98.20
4374;DHT22;2201;51.100;6.814;2022-11-18T11:44:53;12.70;98.20
4374;DHT22;2201;51.100;6.814;2022-11-18T11:47:32;12.70;98.20
4374;DHT22;2201;51.100;6.814;2022-11-18T11:50:22;12.60;98.20
4374;DHT22;2201;51.100;6.814;2022-11-18T11:53:07;12.60;98.20
4374;DHT22;2201;51.100;6.814;2022-11-18T11:55:47;12.60;98.20
4374;DHT22;2201;51.100;6.814;2022-11-18T11:58:31;12.50;98.20
4374;DHT22;2201;51.100;6.814;2022-11-18T12:01:18;12.40;98.20
4374;DHT22;2201;51.100;6.814;2022-11-18T12:03:46;12.30;98.20
4374;DHT22;2201;51.100;6.814;2022-11-18T12:06:14;12.30;98.20
4374;DHT22;2201;51.100;6.814;2022-11-18T12:08:49;12.30;98.20
4374;DHT22;2201;51.100;6.814;2022-11-18T12:11:26;12.20;98.20
4374;DHT22;2201;51.100;6.814;2022-11-18T12:14:00;12.10;98.20
4374;DHT22;2201;51.100;6.814;2022-11-18T12:16:35;12.10;98.20
4374;DHT22;2201;51.100;6.814;2022-11-18T12:19:10;12.00;98.20
4374;DHT22;2201;51.100;6.814;2022-11-18T12:21:56;12.00;98.20
4374;DHT22;2201;51.100;6.814;2022-11-18T12:24:35;11.90;98.20
4374;DHT22;2201;51.100;6.814;2022-11-18T12:27:05;11.90;98.20
4374;DHT22;2201;51.100;6.814;2022-11-18T12:29:37;11.90;98.20
4374;DHT22;2201;51.100;6.814;2022-11-18T12:32:30;11.90;98.20
4374;DHT22;2201;51.100;6.814;2022-11-18T12:35:02;11.90;98.20
4374;DHT22;2201;51.100;6.814;2022-11-18T12:37:57;11.80;98.20
4374;DHT22;2201;51.100;6.814;2022-11-18T12:40:41;11.80;98.20
4374;DHT22;2201;51.100;6.814;2022-11-18T12:52:46;11.80;98.20
4374;DHT22;2201;51.100;6.814;2022-11-18T12:55:17;11.80;98.20
4374;DHT22;2201;51.100;6.814;2022-11-18T12:57:44;11.80;98.20
4374;DHT22;2201;51.100;6.814;2022-11-18T13:00:17;11.80;98.20
4374;DHT22;2201;51.100;6.814;2022-11-18T13:02:50;11.80;98.20
4374;DHT22;2201;51.100;6.814;2022-11-18T13:05:20;11.80;98.20
4374;DHT22;2201;51.100;6.814;2022-11-18T13:07:51;11.80;98.20
4374;DHT22;2201;51.100;6.814;2022-11-18T13:10:39;11.80;98.20
4374;DHT22;2201;51.100;6.814;2022-11-18T13:13:22;11.90;98.20
4374;DHT22;2201;51.100;6.814;2022-11-18T13:15:50;11.90;98.20
4374;DHT22;2201;51.100;6.814;2022-11-18T13:18:46;11.90;98.20
4374;DHT22;2201;51.100;6.814;2022-11-18T13:21:20;11.90;98.20
4374;DHT22;2201;51.100;6.814;2022-11-18T13:24:03;11.90;98.20
4374;DHT22;2201;51.100;6.814;2022-11-18T13:26:32;11.90;98.20
4374;DHT22;2201;51.100;6.814;2022-11-18T13:29:15;11.90;98.20
4374;DHT22;2201;51.100;6.814;2022-11-18T13:31:51;11.90;98.20
4374;DHT22;2201;51.100;6.814;2022-11-18T13:34:21;11.90;98.20
4374;DHT22;2201;51.100;6.814;2022-11-18T13:36:51;12.00;98.20
4374;DHT22;2201;51.100;6.814;2022-11-18T13:39:23;12.00;98.20
4374;DHT22;2201;51.100;6.814;2022-11-18T13:42:00;12.00;98.20
4374;DHT22;2201;51.100;6.814;2022-11-18T13:44:29;12.00;98.20
4374;DHT22;2201;51.100;6.814;2022-11-18T13:47:02;12.00;98.20
4374;DHT22;2201;51.100;6.814;2022-11-18T13:49:39;12.00;98.20
4374;DHT22;2201;51.100;6.814;2022-11-18T13:52:10;12.00;98.20
4374;DHT22;2201;51.100;6.814;2022-11-18T13:54:40;12.00;98.20
4374;DHT22;2201;51.100;6.814;2022-11-18T13:57:15;12.10;98.20
4374;DHT22;2201;51.100;6.814;2022-11-18T13:59:45;12.10;98.20
4374;DHT22;2201;51.100;6.814;2022-11-18T14:02:12;12.10;98.20
4374;DHT22;2201;51.100;6.814;2022-11-18T14:04:48;12.10;98.20
4374;DHT22;2201;51.100;6.814;2022-11-18T14:07:23;12.10;98.20
4374;DHT22;2201;51.100;6.814;2022-11-18T14:09:53;12.20;98.20
4374;DHT22;2201;51.100;6.814;2022-11-18T14:12:23;12.20;98.20
4374;DHT22;2201;51.100;6.814;2022-11-18T14:14:50;12.20;98.20
4374;DHT22;2201;51.100;6.814;2022-11-18T14:17:19;12.20;98.20
4374;DHT22;2201;51.100;6.814;2022-11-18T14:19:48;12.20;98.20
4374;DHT22;2201;51.100;6.814;2022-11-18T14:22:17;12.20;98.20
4374;DHT22;2201;51.100;6.814;2022-11-18T14:24:58;12.20;98.20
4374;DHT22;2201;51.100;6.814;2022-11-18T14:27:36;12.20;98.20
4374;DHT22;2201;51.100;6.814;2022-11-18T14:30:32;12.20;98.20
4374;DHT22;2201;51.100;6.814;2022-11-18T14:33:09;12.20;98.20
4374;DHT22;2201;51.100;6.814;2022-11-18T14:35:37;12.20;98.20
4374;DHT22;2201;51.100;6.814;2022-11-18T14:38:11;12.10;98.20
4374;DHT22;2201;51.100;6.814;2022-11-18T14:40:40;12.00;98.20
4374;DHT22;2201;51.100;6.814;2022-11-18T14:43:11;12.00;98.20
4374;DHT22;2201;51.100;6.814;2022-11-18T14:45:39;11.90;98.20
4374;DHT22;2201;51.100;6.814;2022-11-18T14:48:10;11.90;98.20
4374;DHT22;2201;51.100;6.814;2022-11-18T14:50:38;11.90;98.20
4374;DHT22;2201;51.100;6.814;2022-11-18T14:53:05;11.80;98.20
4374;DHT22;2201;51.100;6.814;2022-11-18T14:55:32;11.80;98.20
4374;DHT22;2201;51.100;6.814;2022-11-18T14:58:00;11.80;98.20
4374;DHT22;2201;51.100;6.814;2022-11-18T15:00:27;11.70;98.20
4374;DHT22;2201;51.100;6.814;2022-11-18T15:02:54;11.70;98.20
4374;DHT22;2201;51.100;6.814;2022-11-18T15:05:21;11.60;98.20
4374;DHT22;2201;51.100;6.814;2022-11-18T15:08:03;11.60;98.20
4374;DHT22;2201;51.100;6.814;2022-11-18T15:10:30;11.60;98.20
4374;DHT22;2201;51.100;6.814;2022-11-18T15:12:59;11.50;98.20
4374;DHT22;2201;51.100;6.814;2022-11-18T15:15:27;11.40;98.20
4374;DHT22;2201;51.100;6.814;2022-11-18T15:17:54;11.40;98.20
4374;DHT22;2201;51.100;6.814;2022-11-18T15:20:21;11.30;98.20
4374;DHT22;2201;51.100;6.814;2022-11-18T15:22:50;11.20;98.20
4374;DHT22;2201;51.100;6.814;2022-11-18T15:25:20;11.20;98.20
4374;DHT22;2201;51.100;6.814;2022-11-18T15:27:47;11.10;98.20
4374;DHT22;2201;51.100;6.814;2022-11-18T15:30:16;11.10;98.20
4374;DHT22;2201;51.100;6.814;2022-11-18T15:32:43;11.00;98.20
4374;DHT22;2201;51.100;6.814;2022-11-18T15:35:11;11.00;98.20
4374;DHT22;2201;51.100;6.814;2022-11-18T15:37:39;10.90;98.20
4374;DHT22;2201;51.100;6.814;2022-11-18T15:40:06;10.80;98.20
4374;DHT22;2201;51.100;6.814;2022-11-18T15:42:34;10.80;98.20
4374;DHT22;2201;51.100;6.814;2022-11-18T15:45:01;10.70;98.20
4374;DHT22;2201;51.100;6.814;2022-11-18T15:47:29;10.70;98.20
4374;DHT22;2201;51.100;6.814;2022-11-18T15:49:56;10.60;98.20
4374;DHT22;2201;51.100;6.814;2022-11-18T15:52:23;10.60;98.20
4374;DHT22;2201;51.100;6.814;2022-11-18T15:54:51;10.50;98.20
4374;DHT22;2201;51.100;6.814;2022-11-18T15:57:18;10.40;98.20
4374;DHT22;2201;51.100;6.814;2022-11-18T15:59:47;10.40;98.20
4374;DHT22;2201;51.100;6.814;2022-11-18T16:02:14;10.30;98.20
4374;DHT22;2201;51.100;6.814;2022-11-18T16:04:43;10.30;98.20
4374;DHT22;2201;51.100;6.814;2022-11-18T16:07:09;10.20;98.20
4374;DHT22;2201;51.100;6.814;2022-11-18T16:09:36;10.10;98.20
4374;DHT22;2201;51.100;6.814;2022-11-18T16:12:20;10.10;98.20
4374;DHT22;2201;51.100;6.814;2022-11-18T16:15:05;10.00;98.20
4374;DHT22;2201;51.100;6.814;2022-11-18T16:17:49;10.00;98.20
4374;DHT22;2201;51.100;6.814;2022-11-18T16:20:18;10.00;98.20
4374;DHT22;2201;51.100;6.814;2022-11-18T16:23:02;9.90;98.20
4374;DHT22;2201;51.100;6.814;2022-11-18T16:25:31;9.90;98.20
4374;DHT22;2201;51.100;6.814;2022-11-18T16:27:58;9.90;98.20
4374;DHT22;2201;51.100;6.814;2022-11-18T16:30:24;9.90;98.20
4374;DHT22;2201;51.100;6.814;2022-11-18T16:33:08;9.90;98.20
4374;DHT22;2201;51.100;6.814;2022-11-18T16:35:37;9.90;98.20
4374;DHT22;2201;51.100;6.814;2022-11-18T16:38:33;9.90;98.20
4374;DHT22;2201;51.100;6.814;2022-11-18T16:41:09;9.90;98.20